createdAt,value
2018-02-19T00:01:32.321Z,-1.50
2018-02-19T00:03:59.902Z,-1.60
2018-02-19T00:06:27.511Z,-1.60
2018-02-19T00:08:55.952Z,-1.50
2018-02-19T00:11:23.561Z,-1.50
2018-02-19T00:13:51.161Z,-1.60
2018-02-19T00:16:18.752Z,-1.50
2018-02-19T00:18:46.349Z,-1.40
2018-02-19T00:21:13.972Z,-1.40
2018-02-19T00:23:42.543Z,-1.30
2018-02-19T00:26:10.229Z,-1.20
2018-02-19T00:28:37.787Z,-1.30
2018-02-19T00:31:05.422Z,-1.30
2018-02-19T00:33:33.038Z,-1.30
2018-02-19T00:36:00.580Z,-1.30
2018-02-19T00:38:28.212Z,-1.30
2018-02-19T00:40:56.128Z,-1.20
2018-02-19T00:43:24.469Z,-0.90
2018-02-19T00:45:52.062Z,-0.90
2018-02-19T00:48:20.949Z,-0.80
2018-02-19T00:50:48.556Z,-0.80
2018-02-19T00:53:16.869Z,-0.80
2018-02-19T00:55:51.210Z,-0.80
2018-02-19T00:58:19.535Z,-0.60
2018-02-19T01:00:47.164Z,-0.60
2018-02-19T01:03:14.752Z,-0.60
2018-02-19T01:05:46.601Z,-0.80
2018-02-19T01:08:14.993Z,-0.80
2018-02-19T01:10:42.950Z,-0.80
2018-02-19T01:13:12.702Z,-1.00
2018-02-19T01:15:42.033Z,-1.10
2018-02-19T01:18:09.633Z,-1.10
2018-02-19T01:20:37.991Z,-0.90
2018-02-19T01:23:05.627Z,-0.90
2018-02-19T01:25:33.180Z,-1.00
2018-02-19T01:28:00.833Z,-0.90
2018-02-19T01:30:30.418Z,-0.90
2018-02-19T01:32:58.132Z,-0.80
2018-02-19T01:35:26.254Z,-1.00
2018-02-19T01:37:53.880Z,-0.90
2018-02-19T01:40:22.648Z,-0.80
2018-02-19T01:42:51.025Z,-0.80
2018-02-19T01:45:19.445Z,-0.70
2018-02-19T01:47:47.074Z,-0.70
2018-02-19T01:50:15.742Z,-0.70
2018-02-19T01:52:43.352Z,-0.50
2018-02-19T01:55:11.297Z,-0.60
2018-02-19T01:57:39.655Z,-0.70
2018-02-19T02:00:08.009Z,-0.70
2018-02-19T02:02:36.446Z,-0.70
2018-02-19T02:05:04.102Z,-0.70
2018-02-19T02:07:32.701Z,-0.70
2018-02-19T02:10:01.107Z,-0.80
2018-02-19T02:12:29.807Z,-0.80
2018-02-19T02:14:58.414Z,-0.70
2018-02-19T02:17:26.897Z,-0.80
2018-02-19T02:19:54.525Z,-0.80
2018-02-19T02:22:22.113Z,-0.80
2018-02-19T02:24:50.019Z,-0.90
2018-02-19T02:27:17.720Z,-0.90
2018-02-19T02:29:45.333Z,-1.00
2018-02-19T02:32:12.939Z,-1.10
2018-02-19T02:34:40.581Z,-1.20
2018-02-19T02:37:08.991Z,-1.20
2018-02-19T02:39:36.950Z,-1.20
2018-02-19T02:42:04.565Z,-1.30
2018-02-19T02:44:32.201Z,-1.10
2018-02-19T02:46:59.865Z,-1.20
2018-02-19T02:49:28.537Z,-1.30
2018-02-19T02:51:57.424Z,-1.20
2018-02-19T02:54:26.807Z,-1.30
2018-02-19T02:56:54.436Z,-1.30
2018-02-19T02:59:23.527Z,-1.40
2018-02-19T03:01:51.249Z,-1.40
2018-02-19T03:04:18.842Z,-1.50
2018-02-19T03:06:46.476Z,-1.50
2018-02-19T03:09:14.226Z,-1.40
2018-02-19T03:11:41.849Z,-1.60
2018-02-19T03:14:10.552Z,-1.50
2018-02-19T03:16:38.183Z,-1.50
2018-02-19T03:19:06.958Z,-1.60
2018-02-19T03:21:34.631Z,-1.50
2018-02-19T03:24:02.313Z,-1.50
2018-02-19T03:26:31.654Z,-1.30
2018-02-19T03:28:59.276Z,-1.30
2018-02-19T03:31:27.475Z,-1.30
2018-02-19T03:33:55.862Z,-1.30
2018-02-19T03:36:23.505Z,-1.50
2018-02-19T03:38:51.408Z,-1.40
2018-02-19T03:41:19.029Z,-1.30
2018-02-19T03:43:46.669Z,-1.40
2018-02-19T03:46:14.808Z,-1.20
2018-02-19T03:48:42.403Z,-1.20
2018-02-19T03:51:10.017Z,-1.30
2018-02-19T03:53:38.014Z,-1.20
2018-02-19T03:56:06.059Z,-1.30
2018-02-19T03:58:33.696Z,-1.00
2018-02-19T04:01:01.360Z,-1.00
2018-02-19T04:03:29.826Z,-0.90
2018-02-19T04:05:57.581Z,-0.90
2018-02-19T04:08:26.454Z,-0.90
2018-02-19T04:10:54.062Z,-0.90
2018-02-19T04:13:21.624Z,-1.00
2018-02-19T04:15:49.428Z,-0.90
2018-02-19T04:18:17.030Z,-1.00
2018-02-19T04:20:44.678Z,-1.10
2018-02-19T04:23:13.216Z,-1.10
2018-02-19T04:25:40.860Z,-1.30
2018-02-19T04:28:08.443Z,-1.50
2018-02-19T04:30:36.184Z,-1.40
2018-02-19T04:33:03.816Z,-1.50
2018-02-19T04:35:31.415Z,-1.50
2018-02-19T04:37:59.336Z,-1.40
2018-02-19T04:40:27.450Z,-1.40
2018-02-19T04:42:56.243Z,-1.30
2018-02-19T04:45:24.208Z,-1.30
2018-02-19T04:47:51.794Z,-1.30
2018-02-19T04:50:20.410Z,-1.40
2018-02-19T04:52:48.336Z,-1.40
2018-02-19T04:55:15.912Z,-1.50
2018-02-19T04:57:43.467Z,-1.40
2018-02-19T05:00:11.165Z,-1.40
2018-02-19T05:02:38.780Z,-1.30
2018-02-19T05:05:06.441Z,-1.20
2018-02-19T05:07:34.060Z,-1.10
2018-02-19T05:10:01.647Z,-1.30
2018-02-19T05:12:31.018Z,-1.40
2018-02-19T05:14:59.029Z,-1.40
2018-02-19T05:17:26.626Z,-1.30
2018-02-19T05:19:55.037Z,-1.40
2018-02-19T05:22:23.085Z,-1.40
2018-02-19T05:24:50.694Z,-1.30
2018-02-19T05:27:20.012Z,-1.20
2018-02-19T05:29:48.214Z,-1.20
2018-02-19T05:32:16.912Z,-1.00
2018-02-19T05:34:44.601Z,-1.00
2018-02-19T05:37:12.363Z,-1.00
2018-02-19T05:39:39.956Z,-1.00
2018-02-19T05:42:07.542Z,-0.90
2018-02-19T05:44:36.285Z,-0.80
2018-02-19T05:47:04.488Z,-0.70
2018-02-19T05:49:33.881Z,-0.60
2018-02-19T05:52:01.668Z,-0.60
2018-02-19T05:54:29.266Z,-0.50
2018-02-19T05:56:57.748Z,-0.40
2018-02-19T05:59:26.207Z,-0.30
2018-02-19T06:01:54.992Z,-0.30
2018-02-19T06:04:23.479Z,-0.30
2018-02-19T06:06:51.275Z,-0.30
2018-02-19T06:09:18.964Z,-0.30
2018-02-19T06:11:48.143Z,-0.40
2018-02-19T06:14:17.718Z,-0.40
2018-02-19T06:16:46.015Z,-0.60
2018-02-19T06:19:13.690Z,-0.70
2018-02-19T06:21:41.315Z,-0.70
2018-02-19T06:24:08.890Z,-0.80
2018-02-19T06:26:37.330Z,-0.50
2018-02-19T06:29:05.118Z,-0.60
2018-02-19T06:31:33.521Z,-0.40
2018-02-19T06:34:01.919Z,-0.40
2018-02-19T06:36:29.588Z,-0.40
2018-02-19T06:38:58.127Z,-0.30
2018-02-19T06:41:26.630Z,-0.30
2018-02-19T06:43:54.241Z,-0.40
2018-02-19T06:46:21.831Z,-0.20
2018-02-19T06:48:49.564Z,-0.30
2018-02-19T06:51:18.111Z,-0.20
2018-02-19T06:53:47.949Z,-0.20
2018-02-19T06:56:17.393Z,-0.10
2018-02-19T06:58:45.981Z,-0.10
2018-02-19T07:01:13.867Z,-0.10
2018-02-19T07:03:42.232Z,-0.30
2018-02-19T07:06:10.653Z,0.00
2018-02-19T07:08:39.055Z,0.00
2018-02-19T07:11:06.686Z,0.00
2018-02-19T07:13:35.081Z,0.10
2018-02-19T07:16:02.678Z,0.30
2018-02-19T07:18:31.268Z,0.40
2018-02-19T07:20:59.867Z,0.40
2018-02-19T07:23:27.458Z,0.40
2018-02-19T07:25:55.073Z,0.50
2018-02-19T07:28:22.683Z,0.60
2018-02-19T07:30:50.312Z,0.60
2018-02-19T07:33:18.724Z,0.70
2018-02-19T07:35:48.337Z,0.70
2018-02-19T07:38:17.446Z,0.80
2018-02-19T07:40:45.077Z,0.50
2018-02-19T07:43:14.525Z,0.70
2018-02-19T07:45:42.103Z,0.70
2018-02-19T07:48:09.681Z,0.70
2018-02-19T07:50:39.391Z,0.80
2018-02-19T07:53:06.977Z,0.80
2018-02-19T07:55:34.633Z,0.90
2018-02-19T07:58:02.589Z,0.80
2018-02-19T08:00:30.173Z,0.70
2018-02-19T08:02:57.766Z,0.70
2018-02-19T08:05:26.410Z,0.60
2018-02-19T08:07:54.019Z,0.70
2018-02-19T08:10:23.246Z,1.00
2018-02-19T08:12:50.993Z,0.90
2018-02-19T08:15:18.609Z,1.00
2018-02-19T08:17:46.866Z,1.00
2018-02-19T08:20:14.576Z,0.90
2018-02-19T08:22:43.841Z,0.90
2018-02-19T08:25:11.518Z,0.80
2018-02-19T08:27:39.982Z,0.90
2018-02-19T08:30:09.279Z,1.00
2018-02-19T08:32:38.549Z,0.90
2018-02-19T08:35:06.950Z,0.90
2018-02-19T08:37:34.613Z,0.80
2018-02-19T08:40:02.193Z,0.80
2018-02-19T08:42:29.949Z,0.70
2018-02-19T08:44:57.486Z,0.80
2018-02-19T08:47:25.060Z,0.80
2018-02-19T08:49:52.656Z,0.80
2018-02-19T08:52:20.213Z,0.70
2018-02-19T08:54:48.108Z,0.80
2018-02-19T08:57:16.486Z,0.70
2018-02-19T08:59:44.099Z,0.70
2018-02-19T09:02:11.731Z,0.50
2018-02-19T09:04:39.337Z,0.60
2018-02-19T09:07:07.637Z,0.40
2018-02-19T09:09:36.123Z,0.40
2018-02-19T09:12:03.795Z,0.40
2018-02-19T09:14:31.370Z,0.30
2018-02-19T09:16:59.698Z,0.60
2018-02-19T09:19:28.220Z,0.60
2018-02-19T09:21:55.773Z,0.50
2018-02-19T09:24:24.265Z,0.70
2018-02-19T09:26:51.862Z,0.80
2018-02-19T09:29:19.452Z,1.00
2018-02-19T09:31:47.815Z,1.00
2018-02-19T09:34:15.910Z,1.00
2018-02-19T09:36:43.468Z,1.00
2018-02-19T09:39:11.919Z,1.10
2018-02-19T09:41:39.520Z,1.10
2018-02-19T09:44:07.075Z,1.30
2018-02-19T09:46:34.623Z,1.30
2018-02-19T09:49:02.270Z,1.30
2018-02-19T09:51:29.846Z,1.30
2018-02-19T09:53:57.392Z,1.40
2018-02-19T09:56:25.381Z,1.30
2018-02-19T09:58:54.630Z,1.40
2018-02-19T10:01:22.225Z,1.40
2018-02-19T10:03:50.583Z,1.40
2018-02-19T10:06:22.752Z,1.50
2018-02-19T10:08:51.157Z,1.50
2018-02-19T10:11:18.697Z,1.50
2018-02-19T10:13:46.916Z,1.40
2018-02-19T10:16:15.012Z,1.50
2018-02-19T10:18:42.576Z,1.50
2018-02-19T10:21:10.197Z,1.40
2018-02-19T10:23:38.079Z,1.40
2018-02-19T10:26:05.618Z,1.40
2018-02-19T10:28:33.184Z,1.40
2018-02-19T10:31:00.783Z,1.50
2018-02-19T10:33:28.344Z,1.50
2018-02-19T10:35:55.983Z,1.50
2018-02-19T10:38:23.611Z,1.40
2018-02-19T10:40:51.955Z,1.50
2018-02-19T10:43:19.488Z,1.50
2018-02-19T10:45:47.929Z,1.40
2018-02-19T10:48:15.853Z,1.40
2018-02-19T10:50:43.479Z,1.50
2018-02-19T10:53:11.117Z,1.50
2018-02-19T10:55:38.659Z,1.40
2018-02-19T10:58:06.225Z,1.40
2018-02-19T11:00:39.871Z,1.40
2018-02-19T11:03:08.172Z,1.60
2018-02-19T11:05:35.778Z,1.60
2018-02-19T11:08:03.355Z,1.80
2018-02-19T11:10:30.989Z,2.10
2018-02-19T11:12:58.643Z,2.20
2018-02-19T11:15:26.245Z,2.40
2018-02-19T11:17:54.559Z,2.70
2018-02-19T11:20:22.140Z,2.70
2018-02-19T11:22:49.937Z,2.90
2018-02-19T11:25:19.905Z,2.90
2018-02-19T11:27:48.433Z,3.00
2018-02-19T11:30:17.005Z,2.90
2018-02-19T11:32:47.275Z,2.90
2018-02-19T11:35:14.900Z,3.00
2018-02-19T11:37:42.474Z,3.10
2018-02-19T11:40:10.875Z,2.80
2018-02-19T11:42:39.201Z,2.90
2018-02-19T11:45:08.031Z,2.80
2018-02-19T11:47:35.693Z,2.90
2018-02-19T11:50:03.256Z,2.90
2018-02-19T11:52:30.963Z,2.90
2018-02-19T11:54:58.584Z,2.90
2018-02-19T11:57:26.918Z,2.60
2018-02-19T11:59:54.566Z,2.90
2018-02-19T12:02:22.126Z,2.80
2018-02-19T12:04:50.644Z,2.90
2018-02-19T12:07:18.229Z,2.80
2018-02-19T12:09:46.360Z,2.80
2018-02-19T12:12:13.961Z,2.70
2018-02-19T12:14:41.963Z,2.70
2018-02-19T12:17:09.594Z,2.70
2018-02-19T12:19:41.731Z,2.70
2018-02-19T12:22:09.374Z,2.80
2018-02-19T12:24:37.086Z,2.80
2018-02-19T12:27:04.678Z,2.80
2018-02-19T12:29:32.624Z,2.90
2018-02-19T12:32:00.985Z,2.90
2018-02-19T12:34:29.436Z,2.90
2018-02-19T12:36:57.081Z,2.90
2018-02-19T12:39:24.857Z,3.00
2018-02-19T12:41:52.404Z,3.00
2018-02-19T12:44:20.384Z,2.90
2018-02-19T12:46:49.064Z,2.80
2018-02-19T12:49:18.744Z,2.70
2018-02-19T12:51:48.606Z,2.60
2018-02-19T12:54:17.779Z,2.10
2018-02-19T12:56:47.218Z,1.80
2018-02-19T12:59:14.828Z,1.60
2018-02-19T13:01:43.154Z,1.40
2018-02-19T13:04:10.708Z,1.40
2018-02-19T13:06:38.688Z,1.20
2018-02-19T13:09:06.276Z,1.20
2018-02-19T13:11:34.239Z,1.20
2018-02-19T13:14:01.827Z,1.10
2018-02-19T13:16:29.358Z,1.00
2018-02-19T13:18:57.816Z,1.00
2018-02-19T13:21:25.480Z,1.00
2018-02-19T13:23:53.040Z,0.90
2018-02-19T13:26:21.365Z,0.70
2018-02-19T13:28:48.939Z,0.70
2018-02-19T13:31:17.004Z,0.80
2018-02-19T13:33:44.551Z,0.90
2018-02-19T13:36:12.175Z,1.00
2018-02-19T13:38:39.719Z,1.00
2018-02-19T13:41:07.279Z,1.20
2018-02-19T13:43:35.929Z,1.30
2018-02-19T13:46:03.520Z,1.30
2018-02-19T13:48:31.224Z,1.20
2018-02-19T13:50:58.808Z,1.40
2018-02-19T13:53:26.460Z,1.50
2018-02-19T13:55:54.001Z,1.30
2018-02-19T13:58:21.614Z,1.40
2018-02-19T14:00:49.183Z,1.30
2018-02-19T14:03:19.253Z,1.50
2018-02-19T14:05:48.922Z,1.50
2018-02-19T14:08:16.971Z,1.50
2018-02-19T14:10:44.519Z,1.40
2018-02-19T14:13:13.026Z,1.30
2018-02-19T14:15:40.565Z,1.20
2018-02-19T14:18:08.185Z,1.10
2018-02-19T14:20:35.792Z,1.00
2018-02-19T14:23:03.339Z,1.00
2018-02-19T14:25:30.881Z,1.10
2018-02-19T14:27:58.761Z,1.00
2018-02-19T14:30:26.313Z,1.10
2018-02-19T14:32:54.652Z,1.00
2018-02-19T14:35:22.251Z,1.00
2018-02-19T14:37:49.811Z,1.00
2018-02-19T14:40:18.292Z,1.00
2018-02-19T14:42:46.556Z,1.20
2018-02-19T14:45:14.206Z,1.10
2018-02-19T14:47:42.548Z,1.10
2018-02-19T14:50:11.755Z,1.10
2018-02-19T14:52:39.316Z,1.10
2018-02-19T14:55:07.643Z,1.20
2018-02-19T14:57:36.302Z,1.10
2018-02-19T15:00:03.863Z,1.10
2018-02-19T15:02:31.532Z,1.20
2018-02-19T15:04:59.146Z,1.20
2018-02-19T15:07:26.706Z,1.10
2018-02-19T15:09:55.106Z,1.20
2018-02-19T15:12:22.818Z,1.20
2018-02-19T15:14:51.152Z,0.80
2018-02-19T15:17:18.742Z,0.80
2018-02-19T15:19:47.102Z,0.90
2018-02-19T15:22:14.660Z,0.50
2018-02-19T15:24:42.202Z,0.80
2018-02-19T15:27:09.785Z,0.80
2018-02-19T15:29:37.310Z,0.70
2018-02-19T15:32:04.891Z,0.80
2018-02-19T15:34:32.580Z,0.80
2018-02-19T15:37:00.165Z,0.80
2018-02-19T15:39:28.554Z,0.70
2018-02-19T15:41:57.301Z,0.70
2018-02-19T15:44:24.897Z,0.80
2018-02-19T15:46:53.941Z,0.80
2018-02-19T15:49:22.406Z,0.80
2018-02-19T15:51:49.946Z,0.60
2018-02-19T15:54:20.142Z,0.50
2018-02-19T15:56:49.558Z,0.30
2018-02-19T15:59:18.175Z,0.10
2018-02-19T16:01:47.990Z,0.50
2018-02-19T16:04:17.208Z,0.40
2018-02-19T16:06:46.019Z,0.70
2018-02-19T16:09:13.618Z,0.70
2018-02-19T16:11:42.277Z,0.70
2018-02-19T16:14:11.034Z,0.70
2018-02-19T16:16:38.637Z,0.80
2018-02-19T16:19:07.248Z,0.70
2018-02-19T16:21:34.803Z,0.60
2018-02-19T16:24:02.366Z,0.30
2018-02-19T16:26:31.052Z,0.50
2018-02-19T16:28:58.628Z,0.60
2018-02-19T16:31:26.166Z,0.50
2018-02-19T16:33:53.831Z,0.40
2018-02-19T16:36:21.367Z,0.30
2018-02-19T16:38:48.945Z,0.40
2018-02-19T16:41:17.092Z,0.40
2018-02-19T16:43:44.639Z,0.50
2018-02-19T16:46:12.218Z,0.40
2018-02-19T16:48:40.576Z,0.50
2018-02-19T16:51:08.886Z,0.40
2018-02-19T16:53:36.509Z,0.50
2018-02-19T16:56:05.020Z,0.60
2018-02-19T16:58:32.597Z,0.50
2018-02-19T17:01:00.943Z,0.60
2018-02-19T17:03:29.620Z,0.70
2018-02-19T17:05:57.174Z,0.50
2018-02-19T17:08:24.732Z,0.40
2018-02-19T17:10:52.323Z,0.40
2018-02-19T17:13:19.877Z,0.40
2018-02-19T17:15:48.228Z,0.40
2018-02-19T17:18:16.648Z,0.20
2018-02-19T17:20:44.997Z,0.20
2018-02-19T17:23:13.408Z,0.20
2018-02-19T17:25:41.288Z,0.20
2018-02-19T17:28:09.619Z,0.00
2018-02-19T17:30:50.727Z,-0.10
2018-02-19T17:33:18.276Z,-0.10
2018-02-19T17:35:50.514Z,-0.20
2018-02-19T17:38:18.921Z,-0.10
2018-02-19T17:40:46.965Z,-0.10
2018-02-19T17:43:14.605Z,-0.10
2018-02-19T17:45:42.584Z,-0.10
2018-02-19T17:48:10.945Z,-0.20
2018-02-19T17:50:39.264Z,-0.30
2018-02-19T17:53:06.866Z,-0.30
2018-02-19T17:55:36.226Z,-0.30
2018-02-19T17:58:04.587Z,-0.20
2018-02-19T18:00:32.272Z,-0.20
2018-02-19T18:02:59.914Z,-0.10
2018-02-19T18:05:28.215Z,-0.10
2018-02-19T18:07:56.314Z,-0.10
2018-02-19T18:10:24.701Z,0.00
2018-02-19T18:12:52.259Z,0.00
2018-02-19T18:15:19.943Z,-0.20
2018-02-19T18:17:48.160Z,-0.30
2018-02-19T18:20:16.955Z,-0.30
2018-02-19T18:22:44.559Z,-0.30
2018-02-19T18:25:12.863Z,-0.20
2018-02-19T18:27:40.438Z,-0.20
2018-02-19T18:30:08.036Z,-0.20
2018-02-19T18:32:35.611Z,-0.20
2018-02-19T18:35:03.147Z,-0.30
2018-02-19T18:37:31.179Z,-0.10
2018-02-19T18:39:58.751Z,-0.10
2018-02-19T18:42:26.325Z,-0.10
2018-02-19T18:44:55.262Z,-0.30
2018-02-19T18:47:22.846Z,-0.10
2018-02-19T18:49:50.477Z,-0.20
2018-02-19T18:52:18.833Z,-0.10
2018-02-19T18:54:46.781Z,-0.10
2018-02-19T18:57:15.809Z,0.00
2018-02-19T18:59:44.940Z,0.00
2018-02-19T19:02:12.522Z,0.00
2018-02-19T19:04:40.958Z,0.10
2018-02-19T19:07:08.604Z,0.10
2018-02-19T19:09:47.987Z,0.00
2018-02-19T19:12:16.532Z,0.00
2018-02-19T19:14:44.829Z,0.00
2018-02-19T19:17:12.405Z,0.00
2018-02-19T19:19:40.753Z,0.00
2018-02-19T19:22:08.308Z,0.10
2018-02-19T19:24:35.881Z,0.00
2018-02-19T19:27:03.763Z,0.10
2018-02-19T19:29:32.100Z,0.20
2018-02-19T19:31:59.665Z,0.20
2018-02-19T19:34:27.519Z,0.10
2018-02-19T19:36:55.996Z,0.00
2018-02-19T19:39:23.608Z,0.10
2018-02-19T19:41:51.946Z,0.40
2018-02-19T19:44:19.563Z,0.30
2018-02-19T19:46:48.871Z,0.40
2018-02-19T19:49:16.868Z,0.40
2018-02-19T19:51:46.462Z,0.40
2018-02-19T19:54:14.930Z,0.40
2018-02-19T19:56:43.432Z,0.60
2018-02-19T19:59:10.988Z,0.40
2018-02-19T20:01:38.556Z,0.20
2018-02-19T20:04:06.202Z,0.50
2018-02-19T20:06:33.762Z,0.40
2018-02-19T20:09:01.368Z,0.50
2018-02-19T20:11:28.964Z,0.50
2018-02-19T20:13:56.510Z,0.60
2018-02-19T20:16:24.051Z,0.50
2018-02-19T20:18:51.653Z,0.40
2018-02-19T20:21:19.195Z,0.50
2018-02-19T20:23:47.725Z,0.40
2018-02-19T20:26:16.799Z,0.30
2018-02-19T20:28:44.366Z,0.30
2018-02-19T20:31:12.685Z,0.30
2018-02-19T20:33:41.332Z,0.40
2018-02-19T20:36:08.857Z,0.40
2018-02-19T20:38:36.407Z,0.40
2018-02-19T20:41:04.745Z,0.30
2018-02-19T20:43:32.309Z,0.30
2018-02-19T20:45:59.856Z,0.30
2018-02-19T20:48:27.433Z,0.30
2018-02-19T20:50:54.966Z,0.20
2018-02-19T20:53:22.601Z,0.20
2018-02-19T20:55:50.978Z,0.00
2018-02-19T20:58:18.509Z,-0.10
2018-02-19T21:00:47.029Z,0.10
2018-02-19T21:03:15.994Z,0.20
2018-02-19T21:05:43.550Z,0.30
2018-02-19T21:08:11.901Z,0.40
2018-02-19T21:10:40.328Z,0.30
2018-02-19T21:13:07.872Z,0.20
2018-02-19T21:15:35.413Z,0.30
2018-02-19T21:18:03.077Z,0.40
2018-02-19T21:20:30.807Z,0.30
2018-02-19T21:22:58.345Z,0.40
2018-02-19T21:25:25.981Z,0.30
2018-02-19T21:27:53.540Z,0.30
2018-02-19T21:30:21.099Z,0.40
2018-02-19T21:32:48.683Z,0.50
2018-02-19T21:35:16.940Z,0.40
2018-02-19T21:37:44.492Z,0.50
2018-02-19T21:40:12.082Z,0.50
2018-02-19T21:42:39.632Z,0.50
2018-02-19T21:45:07.179Z,0.40
2018-02-19T21:47:35.903Z,0.50
2018-02-19T21:50:03.469Z,0.50
2018-02-19T21:52:31.026Z,0.60
2018-02-19T21:54:58.687Z,0.50
2018-02-19T21:57:26.225Z,0.40
2018-02-19T21:59:53.758Z,0.40
2018-02-19T22:02:21.411Z,0.30
2018-02-19T22:04:49.857Z,0.20
2018-02-19T22:07:19.044Z,0.20
2018-02-19T22:09:47.206Z,0.30
2018-02-19T22:12:14.751Z,0.40
2018-02-19T22:14:42.308Z,0.40
2018-02-19T22:17:10.337Z,0.50
2018-02-19T22:19:37.882Z,0.50
2018-02-19T22:22:05.420Z,0.40
2018-02-19T22:24:33.051Z,0.40
2018-02-19T22:27:00.617Z,0.40
2018-02-19T22:29:28.179Z,0.30
2018-02-19T22:31:55.784Z,0.30
2018-02-19T22:34:24.109Z,0.40
2018-02-19T22:36:52.506Z,0.50
2018-02-19T22:39:20.071Z,0.40
2018-02-19T22:41:47.957Z,0.40
2018-02-19T22:44:16.797Z,0.60
2018-02-19T22:46:44.353Z,0.70
2018-02-19T22:49:11.931Z,0.70
2018-02-19T22:51:40.269Z,0.60
2018-02-19T22:54:07.812Z,0.60
2018-02-19T22:56:36.297Z,0.60
2018-02-19T22:59:03.833Z,0.60
2018-02-19T23:01:32.243Z,0.60
2018-02-19T23:03:59.815Z,0.60
2018-02-19T23:06:27.366Z,0.70
2018-02-19T23:08:54.948Z,0.50
2018-02-19T23:11:22.478Z,0.50
2018-02-19T23:13:50.824Z,0.30
2018-02-19T23:16:19.131Z,0.20
2018-02-19T23:18:47.678Z,0.20
2018-02-19T23:21:15.822Z,0.30
2018-02-19T23:23:43.387Z,0.30
2018-02-19T23:26:10.979Z,0.30
2018-02-19T23:28:38.551Z,0.30
2018-02-19T23:31:06.232Z,0.30
2018-02-19T23:33:33.780Z,0.40
2018-02-19T23:36:02.149Z,0.40
2018-02-19T23:38:30.448Z,0.40
2018-02-19T23:40:58.036Z,0.40
2018-02-19T23:43:25.619Z,0.50
2018-02-19T23:45:53.200Z,0.50
2018-02-19T23:48:20.767Z,0.40
2018-02-19T23:50:49.268Z,0.40
2018-02-19T23:53:17.959Z,0.40
2018-02-19T23:55:45.853Z,0.40
2018-02-19T23:58:13.747Z,0.40
